sensor_id;sensor_type;location;lat;lon;timestamp;pressure;altitude;pressure_sealevel;temperature;humidity
59513;BME280;45330;51.634;5.562;2023-07-13T00:01:28;101318.53;;;15.13;100.00
59513;BME280;45330;51.634;5.562;2023-07-13T00:03:55;101323.78;;;15.13;100.00
59513;BME280;45330;51.634;5.562;2023-07-13T00:06:21;101324.75;;;15.07;100.00
59513;BME280;45330;51.634;5.562;2023-07-13T00:08:47;101309.22;;;14.97;100.00
59513;BME280;45330;51.634;5.562;2023-07-13T00:11:15;101320.50;;;15.00;100.00
59513;BME280;45330;51.634;5.562;2023-07-13T00:13:41;101312.81;;;14.91;100.00
59513;BME280;45330;51.634;5.562;2023-07-13T00:16:08;101324.88;;;15.01;100.00
59513;BME280;45330;51.634;5.562;2023-07-13T00:18:34;101312.03;;;14.84;100.00
59513;BME280;45330;51.634;5.562;2023-07-13T00:20:59;101331.03;;;14.97;100.00
59513;BME280;45330;51.634;5.562;2023-07-13T00:23:36;101324.97;;;14.95;100.00
59513;BME280;45330;51.634;5.562;2023-07-13T00:26:07;101315.50;;;14.85;100.00
59513;BME280;45330;51.634;5.562;2023-07-13T00:28:33;101325.25;;;14.78;100.00
59513;BME280;45330;51.634;5.562;2023-07-13T00:30:59;101326.97;;;14.79;100.00
59513;BME280;45330;51.634;5.562;2023-07-13T00:33:27;101324.47;;;14.71;100.00
59513;BME280;45330;51.634;5.562;2023-07-13T00:35:53;101307.22;;;14.55;100.00
59513;BME280;45330;51.634;5.562;2023-07-13T00:38:19;101306.41;;;14.53;100.00
59513;BME280;45330;51.634;5.562;2023-07-13T00:40:44;101315.03;;;14.58;100.00
59513;BME280;45330;51.634;5.562;2023-07-13T00:43:17;101331.56;;;14.62;100.00
59513;BME280;45330;51.634;5.562;2023-07-13T00:48:13;101287.50;;;14.31;100.00
59513;BME280;45330;51.634;5.562;2023-07-13T00:50:40;101331.69;;;14.52;100.00
59513;BME280;45330;51.634;5.562;2023-07-13T00:53:07;101333.44;;;14.53;100.00
59513;BME280;45330;51.634;5.562;2023-07-13T00:55:33;101342.97;;;14.57;100.00
59513;BME280;45330;51.634;5.562;2023-07-13T00:57:58;101343.06;;;14.53;100.00
59513;BME280;45330;51.634;5.562;2023-07-13T01:00:25;101338.72;;;14.50;100.00
59513;BME280;45330;51.634;5.562;2023-07-13T01:02:52;101314.47;;;14.36;100.00
59513;BME280;45330;51.634;5.562;2023-07-13T01:05:20;101333.53;;;14.47;100.00
59513;BME280;45330;51.634;5.562;2023-07-13T01:07:49;101318.97;;;14.28;100.00
59513;BME280;45330;51.634;5.562;2023-07-13T01:10:15;101325.78;;;14.39;100.00
59513;BME280;45330;51.634;5.562;2023-07-13T01:12:41;101318.06;;;14.29;100.00
59513;BME280;45330;51.634;5.562;2023-07-13T01:18:19;101335.41;;;14.39;100.00
59513;BME280;45330;51.634;5.562;2023-07-13T01:20:56;101329.41;;;14.31;100.00
59513;BME280;45330;51.634;5.562;2023-07-13T01:23:23;101343.38;;;14.30;100.00
59513;BME280;45330;51.634;5.562;2023-07-13T01:25:50;101351.16;;;14.33;100.00
59513;BME280;45330;51.634;5.562;2023-07-13T01:28:15;101328.66;;;14.21;100.00
59513;BME280;45330;51.634;5.562;2023-07-13T01:30:42;101346.88;;;14.29;100.00
59513;BME280;45330;51.634;5.562;2023-07-13T01:33:11;101340.81;;;14.25;100.00
59513;BME280;45330;51.634;5.562;2023-07-13T01:35:37;101340.84;;;14.23;100.00
59513;BME280;45330;51.634;5.562;2023-07-13T01:38:02;101345.25;;;14.18;100.00
59513;BME280;45330;51.634;5.562;2023-07-13T01:40:28;101347.88;;;14.18;100.00
59513;BME280;45330;51.634;5.562;2023-07-13T01:42:54;101343.56;;;14.14;100.00
59513;BME280;45330;51.634;5.562;2023-07-13T01:45:20;101350.56;;;14.14;100.00
59513;BME280;45330;51.634;5.562;2023-07-13T01:47:45;101351.44;;;14.13;100.00
59513;BME280;45330;51.634;5.562;2023-07-13T01:50:10;101359.34;;;14.10;100.00
59513;BME280;45330;51.634;5.562;2023-07-13T01:52:36;101354.13;;;14.08;100.00
59513;BME280;45330;51.634;5.562;2023-07-13T01:55:02;101342.03;;;13.96;100.00
59513;BME280;45330;51.634;5.562;2023-07-13T01:57:27;101335.13;;;13.90;100.00
59513;BME280;45330;51.634;5.562;2023-07-13T01:59:53;101353.25;;;14.06;100.00
59513;BME280;45330;51.634;5.562;2023-07-13T02:02:18;101355.88;;;14.06;100.00
59513;BME280;45330;51.634;5.562;2023-07-13T02:04:43;101352.44;;;14.04;100.00
59513;BME280;45330;51.634;5.562;2023-07-13T02:07:09;101346.34;;;14.02;100.00
59513;BME280;45330;51.634;5.562;2023-07-13T02:09:34;101343.78;;;13.97;100.00
59513;BME280;45330;51.634;5.562;2023-07-13T02:12:00;101350.72;;;14.00;100.00
59513;BME280;45330;51.634;5.562;2023-07-13T02:14:25;101338.66;;;13.89;100.00
59513;BME280;45330;51.634;5.562;2023-07-13T02:16:51;101358.66;;;13.95;100.00
59513;BME280;45330;51.634;5.562;2023-07-13T02:19:16;101334.44;;;13.76;100.00
59513;BME280;45330;51.634;5.562;2023-07-13T02:21:42;101356.97;;;13.86;100.00
59513;BME280;45330;51.634;5.562;2023-07-13T02:24:08;101356.09;;;13.87;100.00
59513;BME280;45330;51.634;5.562;2023-07-13T02:26:34;101344.03;;;13.76;100.00
59513;BME280;45330;51.634;5.562;2023-07-13T02:28:59;101335.38;;;13.70;100.00
59513;BME280;45330;51.634;5.562;2023-07-13T02:31:25;101342.34;;;13.71;100.00
59513;BME280;45330;51.634;5.562;2023-07-13T02:33:50;101358.84;;;13.77;100.00
59513;BME280;45330;51.634;5.562;2023-07-13T02:36:16;101356.22;;;13.77;100.00
59513;BME280;45330;51.634;5.562;2023-07-13T02:38:41;101331.13;;;13.62;100.00
59513;BME280;45330;51.634;5.562;2023-07-13T02:41:08;101327.69;;;13.57;100.00
59513;BME280;45330;51.634;5.562;2023-07-13T02:43:35;101359.75;;;13.71;100.00
59513;BME280;45330;51.634;5.562;2023-07-13T02:46:01;101358.06;;;13.67;100.00
59513;BME280;45330;51.634;5.562;2023-07-13T02:48:35;101340.81;;;13.52;100.00
59513;BME280;45330;51.634;5.562;2023-07-13T02:51:01;101366.00;;;13.61;100.00
59513;BME280;45330;51.634;5.562;2023-07-13T02:53:27;101349.50;;;13.52;100.00
59513;BME280;45330;51.634;5.562;2023-07-13T02:55:52;101363.41;;;13.59;100.00
59513;BME280;45330;51.634;5.562;2023-07-13T02:58:18;101353.91;;;13.49;100.00
59513;BME280;45330;51.634;5.562;2023-07-13T03:00:44;101365.13;;;13.60;100.00
59513;BME280;45330;51.634;5.562;2023-07-13T03:03:12;101374.69;;;13.61;100.00
59513;BME280;45330;51.634;5.562;2023-07-13T03:05:41;101373.84;;;13.59;100.00
59513;BME280;45330;51.634;5.562;2023-07-13T03:08:07;101370.41;;;13.54;100.00
59513;BME280;45330;51.634;5.562;2023-07-13T03:10:32;101373.91;;;13.54;100.00
59513;BME280;45330;51.634;5.562;2023-07-13T03:12:58;101349.66;;;13.34;100.00
59513;BME280;45330;51.634;5.562;2023-07-13T03:15:23;101347.06;;;13.32;100.00
59513;BME280;45330;51.634;5.562;2023-07-13T03:17:49;101356.66;;;13.35;100.00
59513;BME280;45330;51.634;5.562;2023-07-13T03:20:14;101352.31;;;13.31;100.00
59513;BME280;45330;51.634;5.562;2023-07-13T03:22:40;101361.88;;;13.35;100.00
59513;BME280;45330;51.634;5.562;2023-07-13T03:25:05;101370.56;;;13.37;100.00
59513;BME280;45330;51.634;5.562;2023-07-13T03:27:31;101351.47;;;13.26;100.00
59513;BME280;45330;51.634;5.562;2023-07-13T03:29:56;101367.13;;;13.32;100.00
59513;BME280;45330;51.634;5.562;2023-07-13T03:32:22;101350.69;;;13.16;100.00
59513;BME280;45330;51.634;5.562;2023-07-13T03:34:47;101375.88;;;13.28;100.00
59513;BME280;45330;51.634;5.562;2023-07-13T03:37:13;101374.94;;;13.30;100.00
59513;BME280;45330;51.634;5.562;2023-07-13T03:39:38;101379.31;;;13.30;100.00
59513;BME280;45330;51.634;5.562;2023-07-13T03:42:04;101383.72;;;13.23;100.00
59513;BME280;45330;51.634;5.562;2023-07-13T03:44:29;101385.47;;;13.24;100.00
59513;BME280;45330;51.634;5.562;2023-07-13T03:46:55;101363.78;;;13.13;100.00
59513;BME280;45330;51.634;5.562;2023-07-13T03:49:20;101371.59;;;13.14;100.00
59513;BME280;45330;51.634;5.562;2023-07-13T03:51:46;101366.41;;;13.11;100.00
59513;BME280;45330;51.634;5.562;2023-07-13T03:54:11;101395.91;;;13.24;100.00
59513;BME280;45330;51.634;5.562;2023-07-13T03:56:36;101374.22;;;13.14;100.00
59513;BME280;45330;51.634;5.562;2023-07-13T03:59:02;101396.75;;;13.29;100.00
59513;BME280;45330;51.634;5.562;2023-07-13T04:01:28;101393.22;;;13.38;100.00
59513;BME280;45330;51.634;5.562;2023-07-13T04:03:53;101396.69;;;13.38;100.00
59513;BME280;45330;51.634;5.562;2023-07-13T04:06:29;101397.59;;;13.39;100.00
59513;BME280;45330;51.634;5.562;2023-07-13T04:08:57;101397.50;;;13.45;100.00
59513;BME280;45330;51.634;5.562;2023-07-13T04:11:25;101409.69;;;13.49;100.00
59513;BME280;45330;51.634;5.562;2023-07-13T04:13:51;101404.41;;;13.52;100.00
59513;BME280;45330;51.634;5.562;2023-07-13T04:16:18;101392.22;;;13.50;100.00
59513;BME280;45330;51.634;5.562;2023-07-13T04:18:44;101416.50;;;13.63;100.00
59513;BME280;45330;51.634;5.562;2023-07-13T04:21:10;101419.97;;;13.68;100.00
59513;BME280;45330;51.634;5.562;2023-07-13T04:23:36;101416.34;;;13.78;100.00
59513;BME280;45330;51.634;5.562;2023-07-13T04:26:02;101397.16;;;13.81;100.00
59513;BME280;45330;51.634;5.562;2023-07-13T04:28:27;101414.34;;;14.05;100.00
59513;BME280;45330;51.634;5.562;2023-07-13T04:30:53;101419.47;;;14.14;100.00
59513;BME280;45330;51.634;5.562;2023-07-13T04:33:19;101409.00;;;14.14;100.00
59513;BME280;45330;51.634;5.562;2023-07-13T04:35:51;101409.75;;;14.24;100.00
59513;BME280;45330;51.634;5.562;2023-07-13T04:38:27;101426.91;;;14.48;100.00
59513;BME280;45330;51.634;5.562;2023-07-13T04:40:55;101412.91;;;14.51;100.00
59513;BME280;45330;51.634;5.562;2023-07-13T04:43:21;101405.78;;;14.61;100.00
59513;BME280;45330;51.634;5.562;2023-07-13T04:45:47;101407.44;;;14.69;100.00
59513;BME280;45330;51.634;5.562;2023-07-13T04:48:12;101429.13;;;14.79;100.00
59513;BME280;45330;51.634;5.562;2023-07-13T04:50:37;101403.88;;;14.75;100.00
59513;BME280;45330;51.634;5.562;2023-07-13T04:53:03;101420.41;;;14.79;100.00
59513;BME280;45330;51.634;5.562;2023-07-13T04:55:30;101442.94;;;14.90;100.00
59513;BME280;45330;51.634;5.562;2023-07-13T04:57:56;101435.00;;;14.97;100.00
59513;BME280;45330;51.634;5.562;2023-07-13T05:00:24;101415.84;;;14.91;100.00
59513;BME280;45330;51.634;5.562;2023-07-13T05:02:49;101432.06;;;15.18;100.00
59513;BME280;45330;51.634;5.562;2023-07-13T05:05:15;101437.19;;;15.24;100.00
59513;BME280;45330;51.634;5.562;2023-07-13T05:07:40;101425.00;;;15.23;100.00
59513;BME280;45330;51.634;5.562;2023-07-13T05:10:06;101436.19;;;15.33;100.00
59513;BME280;45330;51.634;5.562;2023-07-13T05:12:32;101431.63;;;15.44;100.00
59513;BME280;45330;51.634;5.562;2023-07-13T05:14:57;101442.69;;;15.62;100.00
59513;BME280;45330;51.634;5.562;2023-07-13T05:17:22;101444.34;;;15.68;100.00
59513;BME280;45330;51.634;5.562;2023-07-13T05:19:48;101445.97;;;15.73;100.00
59513;BME280;45330;51.634;5.562;2023-07-13T05:22:13;101425.94;;;15.69;100.00
59513;BME280;45330;51.634;5.562;2023-07-13T05:24:39;101439.72;;;15.84;100.00
59513;BME280;45330;51.634;5.562;2023-07-13T05:27:04;101456.94;;;15.99;100.00
59513;BME280;45330;51.634;5.562;2023-07-13T05:29:30;101455.16;;;16.01;100.00
59513;BME280;45330;51.634;5.562;2023-07-13T05:31:55;101470.69;;;16.11;100.00
59513;BME280;45330;51.634;5.562;2023-07-13T05:34:21;101449.69;;;16.11;100.00
59513;BME280;45330;51.634;5.562;2023-07-13T05:36:46;101467.72;;;16.28;100.00
59513;BME280;45330;51.634;5.562;2023-07-13T05:39:12;101466.78;;;16.33;100.00
59513;BME280;45330;51.634;5.562;2023-07-13T05:41:37;101468.44;;;16.37;100.00
59513;BME280;45330;51.634;5.562;2023-07-13T05:44:03;101445.81;;;16.29;100.00
59513;BME280;45330;51.634;5.562;2023-07-13T05:46:28;101473.44;;;16.49;100.00
59513;BME280;45330;51.634;5.562;2023-07-13T05:48:54;101470.00;;;16.47;100.00
59513;BME280;45330;51.634;5.562;2023-07-13T05:51:20;101466.47;;;16.48;100.00
59513;BME280;45330;51.634;5.562;2023-07-13T05:53:45;101469.78;;;16.56;100.00
59513;BME280;45330;51.634;5.562;2023-07-13T05:56:10;101473.19;;;16.61;100.00
59513;BME280;45330;51.634;5.562;2023-07-13T05:58:36;101475.31;;;16.85;100.00
59513;BME280;45330;51.634;5.562;2023-07-13T06:01:09;101456.94;;;16.83;100.00
59513;BME280;45330;51.634;5.562;2023-07-13T06:03:35;101485.56;;;16.98;100.00
59513;BME280;45330;51.634;5.562;2023-07-13T06:06:01;101476.94;;;16.93;100.00
59513;BME280;45330;51.634;5.562;2023-07-13T06:08:27;101498.63;;;17.03;100.00
59513;BME280;45330;51.634;5.562;2023-07-13T06:10:52;101494.25;;;17.02;100.00
59513;BME280;45330;51.634;5.562;2023-07-13T06:13:18;101493.97;;;17.14;100.00
59513;BME280;45330;51.634;5.562;2023-07-13T06:15:50;101505.16;;;17.24;100.00
59513;BME280;45330;51.634;5.562;2023-07-13T06:18:16;101478.97;;;17.18;100.00
59513;BME280;45330;51.634;5.562;2023-07-13T06:20:41;101482.44;;;17.20;100.00
59513;BME280;45330;51.634;5.562;2023-07-13T06:23:06;101486.66;;;17.27;100.00
59513;BME280;45330;51.634;5.562;2023-07-13T06:25:32;101503.78;;;17.45;100.00
59513;BME280;45330;51.634;5.562;2023-07-13T06:27:57;101500.16;;;17.49;100.00
59513;BME280;45330;51.634;5.562;2023-07-13T06:30:22;101477.72;;;17.69;100.00
59513;BME280;45330;51.634;5.562;2023-07-13T06:32:49;101509.69;;;18.24;100.00
59513;BME280;45330;51.634;5.562;2023-07-13T06:35:14;101489.38;;;18.28;100.00
59513;BME280;45330;51.634;5.562;2023-07-13T06:37:40;101496.53;;;18.54;100.00
59513;BME280;45330;51.634;5.562;2023-07-13T06:40:05;101513.75;;;18.97;100.00
59513;BME280;45330;51.634;5.562;2023-07-13T06:42:31;101519.09;;;18.94;100.00
59513;BME280;45330;51.634;5.562;2023-07-13T06:44:56;101528.06;;;18.89;100.00
59513;BME280;45330;51.634;5.562;2023-07-13T06:47:22;101532.38;;;18.91;100.00
59513;BME280;45330;51.634;5.562;2023-07-13T06:49:47;101522.53;;;18.98;100.00
59513;BME280;45330;51.634;5.562;2023-07-13T06:52:12;101530.91;;;19.11;100.00
59513;BME280;45330;51.634;5.562;2023-07-13T06:54:38;101526.59;;;19.08;100.00
59513;BME280;45330;51.634;5.562;2023-07-13T06:57:03;101513.72;;;18.99;100.00
59513;BME280;45330;51.634;5.562;2023-07-13T06:59:29;101531.03;;;19.08;100.00
59513;BME280;45330;51.634;5.562;2023-07-13T07:01:54;101514.75;;;18.93;100.00
59513;BME280;45330;51.634;5.562;2023-07-13T07:04:20;101532.81;;;19.07;100.00
59513;BME280;45330;51.634;5.562;2023-07-13T07:06:45;101518.09;;;18.98;100.00
59513;BME280;45330;51.634;5.562;2023-07-13T07:09:11;101536.66;;;18.95;100.00
59513;BME280;45330;51.634;5.562;2023-07-13T07:11:36;101545.72;;;18.85;100.00
59513;BME280;45330;51.634;5.562;2023-07-13T07:14:01;101519.88;;;18.68;100.00
59513;BME280;45330;51.634;5.562;2023-07-13T07:16:27;101526.34;;;18.56;100.00
59513;BME280;45330;51.634;5.562;2023-07-13T07:18:52;101545.44;;;18.64;100.00
59513;BME280;45330;51.634;5.562;2023-07-13T07:21:17;101545.69;;;18.86;100.00
59513;BME280;45330;51.634;5.562;2023-07-13T07:23:43;101525.53;;;18.84;100.00
59513;BME280;45330;51.634;5.562;2023-07-13T07:26:09;101526.25;;;18.91;100.00
59513;BME280;45330;51.634;5.562;2023-07-13T07:28:36;101541.53;;;19.09;100.00
59513;BME280;45330;51.634;5.562;2023-07-13T07:31:01;101543.06;;;19.16;100.00
59513;BME280;45330;51.634;5.562;2023-07-13T07:33:27;101527.06;;;19.23;100.00
59513;BME280;45330;51.634;5.562;2023-07-13T07:35:52;101557.88;;;19.49;100.00
59513;BME280;45330;51.634;5.562;2023-07-13T07:38:18;101547.91;;;19.85;100.00
59513;BME280;45330;51.634;5.562;2023-07-13T07:40:43;101547.56;;;19.96;100.00
59513;BME280;45330;51.634;5.562;2023-07-13T07:43:10;101549.16;;;19.74;100.00
59513;BME280;45330;51.634;5.562;2023-07-13T07:45:37;101546.25;;;19.54;100.00
59513;BME280;45330;51.634;5.562;2023-07-13T07:48:04;101555.91;;;19.56;100.00
59513;BME280;45330;51.634;5.562;2023-07-13T07:50:30;101518.66;;;19.36;100.00
59513;BME280;45330;51.634;5.562;2023-07-13T07:52:56;101535.41;;;19.64;100.00
59513;BME280;45330;51.634;5.562;2023-07-13T07:55:22;101542.97;;;19.48;100.00
59513;BME280;45330;51.634;5.562;2023-07-13T07:57:48;101561.91;;;19.61;100.00
59513;BME280;45330;51.634;5.562;2023-07-13T08:00:14;101538.78;;;19.67;100.00
59513;BME280;45330;51.634;5.562;2023-07-13T08:02:40;101541.00;;;19.81;100.00
59513;BME280;45330;51.634;5.562;2023-07-13T08:05:07;101534.94;;;19.78;100.00
59513;BME280;45330;51.634;5.562;2023-07-13T08:07:33;101555.78;;;19.87;100.00
59513;BME280;45330;51.634;5.562;2023-07-13T08:09:58;101531.53;;;19.74;100.00
59513;BME280;45330;51.634;5.562;2023-07-13T08:12:24;101542.09;;;20.01;100.00
59513;BME280;45330;51.634;5.562;2023-07-13T08:14:50;101568.34;;;20.32;100.00
59513;BME280;45330;51.634;5.562;2023-07-13T08:17:20;101567.28;;;20.36;100.00
59513;BME280;45330;51.634;5.562;2023-07-13T08:19:45;101564.66;;;20.36;100.00
59513;BME280;45330;51.634;5.562;2023-07-13T08:22:11;101547.13;;;20.09;100.00
59513;BME280;45330;51.634;5.562;2023-07-13T08:24:36;101555.25;;;20.02;100.00
59513;BME280;45330;51.634;5.562;2023-07-13T08:27:02;101546.53;;;20.00;100.00
59513;BME280;45330;51.634;5.562;2023-07-13T08:29:27;101548.47;;;20.20;100.00
59513;BME280;45330;51.634;5.562;2023-07-13T08:31:52;101564.00;;;20.55;100.00
59513;BME280;45330;51.634;5.562;2023-07-13T08:34:19;101548.66;;;20.65;100.00
59513;BME280;45330;51.634;5.562;2023-07-13T08:36:45;101556.91;;;20.81;100.00
59513;BME280;45330;51.634;5.562;2023-07-13T08:39:10;101553.81;;;20.93;99.03
59513;BME280;45330;51.634;5.562;2023-07-13T08:41:36;101560.47;;;21.03;98.04
59513;BME280;45330;51.634;5.562;2023-07-13T08:44:03;101541.09;;;21.03;94.71
59513;BME280;45330;51.634;5.562;2023-07-13T08:46:36;101555.00;;;21.30;94.25
59513;BME280;45330;51.634;5.562;2023-07-13T08:49:07;101547.03;;;21.08;94.08
59513;BME280;45330;51.634;5.562;2023-07-13T08:51:57;101542.69;;;21.07;93.15
59513;BME280;45330;51.634;5.562;2023-07-13T08:56:56;101559.75;;;20.98;91.45
59513;BME280;45330;51.634;5.562;2023-07-13T08:59:25;101564.59;;;20.87;91.94
59513;BME280;45330;51.634;5.562;2023-07-13T09:04:34;101555.03;;;20.59;91.07
59513;BME280;45330;51.634;5.562;2023-07-13T09:12:50;101559.84;;;21.19;88.77
59513;BME280;45330;51.634;5.562;2023-07-13T09:15:39;101554.72;;;21.38;89.44
59513;BME280;45330;51.634;5.562;2023-07-13T09:18:11;101543.97;;;21.19;87.85
59513;BME280;45330;51.634;5.562;2023-07-13T09:20:46;101543.47;;;21.09;86.32
59513;BME280;45330;51.634;5.562;2023-07-13T09:23:19;101543.63;;;21.28;87.50
59513;BME280;45330;51.634;5.562;2023-07-13T09:25:48;101543.09;;;21.40;86.57
59513;BME280;45330;51.634;5.562;2023-07-13T09:28:26;101549.31;;;21.63;86.00
59513;BME280;45330;51.634;5.562;2023-07-13T09:33:21;101532.06;;;21.53;81.88
59513;BME280;45330;51.634;5.562;2023-07-13T09:35:48;101551.28;;;21.58;81.44
59513;BME280;45330;51.634;5.562;2023-07-13T09:38:17;101534.03;;;21.48;81.25
59513;BME280;45330;51.634;5.562;2023-07-13T09:41:23;101558.97;;;22.07;81.90
59513;BME280;45330;51.634;5.562;2023-07-13T09:44:00;101545.75;;;22.26;79.56
59513;BME280;45330;51.634;5.562;2023-07-13T09:46:26;101552.25;;;22.19;78.45
59513;BME280;45330;51.634;5.562;2023-07-13T09:48:51;101563.66;;;22.41;77.62
59513;BME280;45330;51.634;5.562;2023-07-13T09:51:16;101553.47;;;22.72;74.66
59513;BME280;45330;51.634;5.562;2023-07-13T09:53:43;101550.88;;;22.70;73.29
59513;BME280;45330;51.634;5.562;2023-07-13T09:56:27;101555.19;;;22.73;74.39
59513;BME280;45330;51.634;5.562;2023-07-13T09:58:55;101542.50;;;22.60;72.50
59513;BME280;45330;51.634;5.562;2023-07-13T10:01:38;101522.03;;;22.43;73.87
59513;BME280;45330;51.634;5.562;2023-07-13T10:04:13;101545.63;;;22.50;72.54
59513;BME280;45330;51.634;5.562;2023-07-13T10:06:40;101558.63;;;22.75;70.64
59513;BME280;45330;51.634;5.562;2023-07-13T10:09:09;101554.25;;;22.74;70.75
59513;BME280;45330;51.634;5.562;2023-07-13T10:11:36;101531.06;;;22.39;70.81
59513;BME280;45330;51.634;5.562;2023-07-13T10:14:15;101560.94;;;22.43;71.35
59513;BME280;45330;51.634;5.562;2023-07-13T10:16:43;101548.03;;;22.35;71.13
59513;BME280;45330;51.634;5.562;2023-07-13T10:19:16;101559.91;;;22.66;71.03
59513;BME280;45330;51.634;5.562;2023-07-13T10:21:57;101563.06;;;22.93;69.60
59513;BME280;45330;51.634;5.562;2023-07-13T10:24:26;101574.19;;;23.02;70.97
59513;BME280;45330;51.634;5.562;2023-07-13T10:27:03;101546.06;;;22.59;77.69
59513;BME280;45330;51.634;5.562;2023-07-13T10:29:35;101574.63;;;22.34;79.61
59513;BME280;45330;51.634;5.562;2023-07-13T10:32:08;101550.53;;;21.97;82.89
59513;BME280;45330;51.634;5.562;2023-07-13T10:34:34;101542.97;;;21.88;84.93
59513;BME280;45330;51.634;5.562;2023-07-13T10:37:00;101559.28;;;22.20;82.95
59513;BME280;45330;51.634;5.562;2023-07-13T10:39:27;101561.94;;;22.20;78.91
59513;BME280;45330;51.634;5.562;2023-07-13T10:41:57;101563.66;;;22.41;79.20
59513;BME280;45330;51.634;5.562;2023-07-13T10:44:28;101549.31;;;22.66;74.91
59513;BME280;45330;51.634;5.562;2023-07-13T10:47:03;101568.03;;;23.20;71.72
59513;BME280;45330;51.634;5.562;2023-07-13T10:49:32;101550.63;;;23.51;69.27
59513;BME280;45330;51.634;5.562;2023-07-13T10:51:58;101549.81;;;23.86;67.70
59513;BME280;45330;51.634;5.562;2023-07-13T10:54:30;101563.09;;;24.03;67.86
59513;BME280;45330;51.634;5.562;2023-07-13T10:57:18;101590.63;;;24.20;67.86
59513;BME280;45330;51.634;5.562;2023-07-13T11:00:15;101590.47;;;23.88;66.92
59513;BME280;45330;51.634;5.562;2023-07-13T11:02:42;101597.91;;;23.98;65.54
59513;BME280;45330;51.634;5.562;2023-07-13T11:07:55;101579.94;;;24.04;64.08
59513;BME280;45330;51.634;5.562;2023-07-13T11:10:49;101604.38;;;24.45;64.80
59513;BME280;45330;51.634;5.562;2023-07-13T11:18:52;101605.13;;;25.14;60.02
59513;BME280;45330;51.634;5.562;2023-07-13T11:21:20;101595.25;;;25.16;60.27
59513;BME280;45330;51.634;5.562;2023-07-13T11:23:54;101588.06;;;24.69;58.23
59513;BME280;45330;51.634;5.562;2023-07-13T11:26:42;101600.84;;;24.27;60.39
59513;BME280;45330;51.634;5.562;2023-07-13T11:29:33;101588.84;;;24.03;60.90
59513;BME280;45330;51.634;5.562;2023-07-13T11:32:22;101600.00;;;23.92;61.90
59513;BME280;45330;51.634;5.562;2023-07-13T11:34:47;101618.84;;;23.51;62.03
59513;BME280;45330;51.634;5.562;2023-07-13T11:37:15;101585.53;;;22.05;80.70
59513;BME280;45330;51.634;5.562;2023-07-13T11:39:44;101610.44;;;20.12;100.00
59513;BME280;45330;51.634;5.562;2023-07-13T11:42:16;101596.88;;;18.79;100.00
59513;BME280;45330;51.634;5.562;2023-07-13T11:44:46;101603.63;;;18.24;100.00
59513;BME280;45330;51.634;5.562;2023-07-13T11:47:17;101610.03;;;18.48;100.00
59513;BME280;45330;51.634;5.562;2023-07-13T11:49:49;101579.00;;;18.59;100.00
59513;BME280;45330;51.634;5.562;2023-07-13T11:52:21;101572.25;;;18.79;100.00
59513;BME280;45330;51.634;5.562;2023-07-13T11:54:53;101612.34;;;18.93;100.00
59513;BME280;45330;51.634;5.562;2023-07-13T11:57:29;101578.38;;;18.81;100.00
59513;BME280;45330;51.634;5.562;2023-07-13T12:00:09;101606.47;;;18.82;100.00
59513;BME280;45330;51.634;5.562;2023-07-13T12:02:39;101572.63;;;18.66;100.00
59513;BME280;45330;51.634;5.562;2023-07-13T12:05:06;101575.31;;;18.65;100.00
59513;BME280;45330;51.634;5.562;2023-07-13T12:07:35;101592.03;;;18.95;100.00
59513;BME280;45330;51.634;5.562;2023-07-13T12:10:19;101566.56;;;18.94;100.00
59513;BME280;45330;51.634;5.562;2023-07-13T12:15:27;101559.03;;;19.40;100.00
59513;BME280;45330;51.634;5.562;2023-07-13T12:17:53;101582.13;;;19.90;100.00
59513;BME280;45330;51.634;5.562;2023-07-13T12:20:27;101565.16;;;19.97;100.00
59513;BME280;45330;51.634;5.562;2023-07-13T12:22:54;101561.06;;;19.87;100.00
59513;BME280;45330;51.634;5.562;2023-07-13T12:25:21;101579.00;;;19.76;100.00
59513;BME280;45330;51.634;5.562;2023-07-13T12:27:50;101577.69;;;19.91;100.00
59513;BME280;45330;51.634;5.562;2023-07-13T12:30:30;101589.72;;;19.99;100.00
59513;BME280;45330;51.634;5.562;2023-07-13T12:33:07;101576.13;;;19.85;100.00
59513;BME280;45330;51.634;5.562;2023-07-13T12:35:48;101598.53;;;19.98;100.00
59513;BME280;45330;51.634;5.562;2023-07-13T12:38:16;101590.44;;;20.30;100.00
59513;BME280;45330;51.634;5.562;2023-07-13T12:40:42;101586.97;;;20.53;100.00
59513;BME280;45330;51.634;5.562;2023-07-13T12:43:14;101570.66;;;20.90;100.00
59513;BME280;45330;51.634;5.562;2023-07-13T12:48:21;101594.63;;;21.55;98.94
59513;BME280;45330;51.634;5.562;2023-07-13T12:50:48;101591.66;;;21.85;98.31
59513;BME280;45330;51.634;5.562;2023-07-13T12:53:19;101565.81;;;21.90;91.39
59513;BME280;45330;51.634;5.562;2023-07-13T12:55:53;101595.94;;;22.10;84.24
59513;BME280;45330;51.634;5.562;2023-07-13T12:58:38;101593.13;;;22.13;92.71
59513;BME280;45330;51.634;5.562;2023-07-13T13:01:04;101577.00;;;21.76;89.07
59513;BME280;45330;51.634;5.562;2023-07-13T13:03:37;101587.81;;;21.92;89.46
59513;BME280;45330;51.634;5.562;2023-07-13T13:06:06;101598.38;;;22.15;86.26
59513;BME280;45330;51.634;5.562;2023-07-13T13:08:50;101589.47;;;22.38;84.93
59513;BME280;45330;51.634;5.562;2023-07-13T13:11:15;101585.63;;;22.64;100.00
59513;BME280;45330;51.634;5.562;2023-07-13T13:13:42;101591.91;;;22.82;75.04
59513;BME280;45330;51.634;5.562;2023-07-13T13:16:43;101586.88;;;22.95;89.87
59513;BME280;45330;51.634;5.562;2023-07-13T13:19:14;101585.03;;;22.97;81.16
59513;BME280;45330;51.634;5.562;2023-07-13T13:21:41;101593.78;;;22.99;73.58